Startpagina
METAR-TAF:

METAR-TAF

Vliegvelden :

Maastricht Aken, Nederland

Maastricht Aachen Airport

breedte: 50-55N, lengte: 005-47E, hoogte: 114 m

Actueel weer

Dit bericht is 14 minuten geleden gemaakt, om 15:55 UTC
Wind 8 kt uit het noordoosten
Temperatuur 18°C
Vochtigheid 64%
Druk 1021 hPa
Zicht 10 km of meer

METAR: EHBK 261555Z AUTO 05008KT 9999 NSC 18/11 Q1021 NOSIG

Tijdstip: 18:09 (16:09 UTC)

Verwachting

Dit bericht is 4 uur en het 57 minuten geleden gemaakt, om 11:12 UTC
Verwachting geldig van 26 om 12 UTC tot 27 om 18 UTC
Wind 5 kt uit het oostnoordoosten
Zicht 10 km of meer
geen wolken onder 1500 m en geen cumulonimbus
Wijzigt naar
van 26 om 22 UTC tot 27 om 01 UTC
Zicht: 4000 m
nevel, Ondiepe mist
Kans 40%
van 27 om 02 UTC tot 27 om 07 UTC
Zicht: 0600 m
lager dan 100 ft
mist
Wijzigt naar
van 27 om 07 UTC tot 27 om 10 UTC
Zicht 10 km of meer

TAF: EHBK 261112Z 2612/2718 06005KT CAVOK BECMG 2622/2701 4000 BR MIFG PROB40 2702/2707 0600 FG VV000 BECMG 2707/2710 9999 NSW

Waarnemingen en weersverwachtingen van meer dan 4000 vliegvelden (METAR en TAF).

De beschikbare stations zijn de gele en rode punten op de kaart.

Ga met uw muis naar het station om de naam te zien.

Klik dan om waarnemingen en weersverwachtingen te zien.

kaart wijzigen: klik op de groene knoppen met een zwart kruis om in te zoomen, op de groene knop met een streepje om uit te zoomen of op de groene pijlen voor aangrenzende kaarten.


METAR-TAF: